Back to Top

Language: 

My Weather Underground Personal Weather Station Historical Data with Graphs...

Delerius Weather Station Historical Data
Daily Summary for July 7, 2017 Units:  English    Metric   Both
« Previous Day
Next Day »
Daily Weekly Monthly Yearly Custom
  High: Low: Average:
Temperature: 71.8 °F 58.5 °F 64.8 °F
Dew Point: 61.4 °F 55.5 °F 58.5 °F
Humidity: 92 % 65 % 80 %
Wind Speed: 9.0 mph 1.0 mph 6.1 mph
Wind Gust: 16.0 mph - -
Wind:- - WNW
Pressure: 30.03 in 29.93 in -
Precipitation: 0.00 in    
Historical Graphs
 
 
Tabular Data for July 7, 2017
Time Temperature Dew Point Pressure Wind Wind Speed Wind Gust Humidity Rainfall Rate (Hourly) solar Conditions
00:04 65.1 °F 58.1 °F 29.95 in WNW 6.0 mph 10.0 mph 78 % 0.00 in 0 W/m2
00:09 64.9 °F 57.9 °F 29.95 in WNW 7.0 mph 11.0 mph 78 % 0.00 in 0 W/m2
00:14 64.9 °F 58.3 °F 29.95 in WNW 6.0 mph 11.0 mph 79 % 0.00 in 0 W/m2
00:19 64.8 °F 58.1 °F 29.95 in WNW 6.0 mph 11.0 mph 79 % 0.00 in 0 W/m2
00:24 64.8 °F 58.4 °F 29.95 in WNW 6.0 mph 11.0 mph 80 % 0.00 in 0 W/m2
00:25 64.8 °F 58.4 °F 29.95 in WNW 7.0 mph 11.0 mph 80 % 0.00 in 0 W/m2
00:30 64.6 °F 58.3 °F 29.95 in WNW 6.0 mph 10.0 mph 80 % 0.00 in 0 W/m2
00:35 64.6 °F 58.6 °F 29.95 in WNW 6.0 mph 9.0 mph 81 % 0.00 in 0 W/m2
00:40 64.4 °F 58.4 °F 29.95 in WNW 6.0 mph 9.0 mph 81 % 0.00 in 0 W/m2
00:45 64.2 °F 58.3 °F 29.95 in West 5.0 mph 9.0 mph 81 % 0.00 in 0 W/m2
00:50 64.0 °F 58.4 °F 29.95 in West 4.0 mph 6.0 mph 82 % 0.00 in 0 W/m2
00:55 63.9 °F 58.3 °F 29.95 in West 4.0 mph 8.0 mph 82 % 0.00 in 0 W/m2
01:00 63.7 °F 58.4 °F 29.95 in West 5.0 mph 8.0 mph 83 % 0.00 in 0 W/m2
01:05 63.3 °F 58.1 °F 29.94 in WNW 5.0 mph 8.0 mph 83 % 0.00 in 0 W/m2
01:10 63.1 °F 57.9 °F 29.94 in West 6.0 mph 9.0 mph 83 % 0.00 in 0 W/m2
01:15 63.0 °F 58.0 °F 29.94 in West 6.0 mph 9.0 mph 84 % 0.00 in 0 W/m2
01:20 63.0 °F 58.0 °F 29.94 in WNW 6.0 mph 9.0 mph 84 % 0.00 in 0 W/m2
01:25 62.8 °F 57.9 °F 29.94 in WNW 6.0 mph 9.0 mph 84 % 0.00 in 0 W/m2
01:30 62.4 °F 57.8 °F 29.94 in WNW 6.0 mph 8.0 mph 85 % 0.00 in 0 W/m2
01:35 62.2 °F 57.7 °F 29.94 in WNW 5.0 mph 8.0 mph 85 % 0.00 in 0 W/m2
01:40 61.9 °F 57.3 °F 29.94 in WNW 6.0 mph 9.0 mph 85 % 0.00 in 0 W/m2
01:45 61.7 °F 57.5 °F 29.94 in WNW 6.0 mph 9.0 mph 86 % 0.00 in 0 W/m2
01:50 61.5 °F 57.3 °F 29.94 in WNW 6.0 mph 10.0 mph 86 % 0.00 in 0 W/m2
01:55 61.3 °F 57.1 °F 29.94 in WNW 7.0 mph 12.0 mph 86 % 0.00 in 0 W/m2
02:00 61.3 °F 57.1 °F 29.93 in WNW 7.0 mph 12.0 mph 86 % 0.00 in 0 W/m2
02:05 61.3 °F 56.8 °F 29.93 in WNW 8.0 mph 13.0 mph 85 % 0.00 in 0 W/m2
02:10 61.3 °F 56.8 °F 29.93 in WNW 8.0 mph 13.0 mph 85 % 0.00 in 0 W/m2
02:15 61.3 °F 56.8 °F 29.93 in WNW 7.0 mph 11.0 mph 85 % 0.00 in 0 W/m2
02:20 61.3 °F 56.8 °F 29.93 in West 7.0 mph 10.0 mph 85 % 0.00 in 0 W/m2
02:25 61.2 °F 56.6 °F 29.93 in West 6.0 mph 9.0 mph 85 % 0.00 in 0 W/m2
02:30 61.2 °F 56.6 °F 29.93 in West 5.0 mph 9.0 mph 85 % 0.00 in 0 W/m2
02:35 61.2 °F 56.6 °F 29.93 in WNW 5.0 mph 9.0 mph 85 % 0.00 in 0 W/m2
02:40 61.2 °F 56.9 °F 29.94 in WNW 4.0 mph 8.0 mph 86 % 0.00 in 0 W/m2
02:45 61.2 °F 56.9 °F 29.93 in WNW 5.0 mph 10.0 mph 86 % 0.00 in 0 W/m2
02:50 61.2 °F 56.9 °F 29.93 in WNW 6.0 mph 11.0 mph 86 % 0.00 in 0 W/m2
02:55 61.0 °F 56.8 °F 29.93 in WNW 7.0 mph 11.0 mph 86 % 0.00 in 0 W/m2
03:00 61.0 °F 56.8 °F 29.93 in WNW 6.0 mph 11.0 mph 86 % 0.00 in 0 W/m2
03:05 60.8 °F 56.6 °F 29.93 in WNW 5.0 mph 8.0 mph 86 % 0.00 in 0 W/m2
03:10 60.6 °F 56.4 °F 29.93 in WNW 5.0 mph 9.0 mph 86 % 0.00 in 0 W/m2
03:15 60.6 °F 56.4 °F 29.93 in WNW 5.0 mph 9.0 mph 86 % 0.00 in 0 W/m2
03:21 60.4 °F 56.6 °F 29.93 in WNW 6.0 mph 8.0 mph 87 % 0.00 in 0 W/m2
03:26 60.3 °F 56.4 °F 29.93 in WNW 5.0 mph 8.0 mph 87 % 0.00 in 0 W/m2
03:31 60.1 °F 56.2 °F 29.93 in WNW 5.0 mph 8.0 mph 87 % 0.00 in 0 W/m2
03:36 59.9 °F 56.0 °F 29.93 in WNW 5.0 mph 8.0 mph 87 % 0.00 in 0 W/m2
03:41 59.7 °F 55.8 °F 29.93 in WNW 4.0 mph 8.0 mph 87 % 0.00 in 0 W/m2
03:46 59.5 °F 56.0 °F 29.93 in WNW 4.0 mph 8.0 mph 88 % 0.00 in 0 W/m2
03:51 59.5 °F 56.0 °F 29.93 in WNW 4.0 mph 5.0 mph 88 % 0.00 in 0 W/m2
03:56 59.4 °F 55.8 °F 29.94 in WNW 4.0 mph 8.0 mph 88 % 0.00 in 0 W/m2
04:01 59.2 °F 55.6 °F 29.93 in WNW 4.0 mph 8.0 mph 88 % 0.00 in 0 W/m2
04:06 59.2 °F 55.6 °F 29.93 in WNW 4.0 mph 7.0 mph 88 % 0.00 in 0 W/m2
04:11 59.0 °F 55.8 °F 29.93 in West 4.0 mph 7.0 mph 89 % 0.00 in 0 W/m2
04:16 58.8 °F 55.6 °F 29.93 in West 4.0 mph 7.0 mph 89 % 0.00 in 0 W/m2
04:17 59.0 °F 55.8 °F 29.93 in West 4.0 mph 7.0 mph 89 % 0.00 in 0 W/m2
04:22 58.8 °F 55.6 °F 29.94 in West 5.0 mph 8.0 mph 89 % 0.00 in 0 W/m2
04:27 58.8 °F 55.6 °F 29.94 in West 5.0 mph 8.0 mph 89 % 0.00 in 0 W/m2
04:32 58.6 °F 55.7 °F 29.94 in West 4.0 mph 9.0 mph 90 % 0.00 in 0 W/m2
04:37 58.6 °F 55.7 °F 29.94 in West 4.0 mph 9.0 mph 90 % 0.00 in 5 W/m2
04:42 58.6 °F 55.7 °F 29.94 in West 4.0 mph 7.0 mph 90 % 0.00 in 7 W/m2
04:47 58.6 °F 55.7 °F 29.94 in West 4.0 mph 7.0 mph 90 % 0.00 in 7 W/m2
04:52 58.6 °F 56.0 °F 29.94 in West 5.0 mph 8.0 mph 91 % 0.00 in 9 W/m2
04:57 58.6 °F 56.0 °F 29.94 in WNW 5.0 mph 8.0 mph 91 % 0.00 in 11 W/m2
05:02 58.5 °F 55.5 °F 29.94 in WNW 4.0 mph 7.0 mph 90 % 0.00 in 14 W/m2
05:07 58.5 °F 55.8 °F 29.94 in WNW 4.0 mph 8.0 mph 91 % 0.00 in 18 W/m2
05:12 58.6 °F 56.0 °F 29.95 in WNW 5.0 mph 9.0 mph 91 % 0.00 in 19 W/m2
05:17 58.6 °F 56.0 °F 29.94 in West 6.0 mph 10.0 mph 91 % 0.00 in 23 W/m2
05:22 58.8 °F 56.2 °F 29.94 in West 6.0 mph 10.0 mph 91 % 0.00 in 28 W/m2
05:27 58.8 °F 56.2 °F 29.94 in West 5.0 mph 10.0 mph 91 % 0.00 in 40 W/m2
05:32 59.0 °F 56.7 °F 29.95 in West 6.0 mph 8.0 mph 92 % 0.00 in 40 W/m2
05:37 59.2 °F 56.9 °F 29.95 in West 6.0 mph 9.0 mph 92 % 0.00 in 49 W/m2
05:42 59.5 °F 57.2 °F 29.95 in West 6.0 mph 9.0 mph 92 % 0.00 in 54 W/m2
05:47 59.7 °F 57.4 °F 29.95 in West 6.0 mph 11.0 mph 92 % 0.00 in 58 W/m2
05:52 60.1 °F 57.4 °F 29.95 in West 7.0 mph 11.0 mph 91 % 0.00 in 60 W/m2
05:57 60.3 °F 57.6 °F 29.95 in West 6.0 mph 11.0 mph 91 % 0.00 in 56 W/m2
06:02 60.4 °F 57.8 °F 29.95 in WNW 7.0 mph 13.0 mph 91 % 0.00 in 62 W/m2
06:07 60.4 °F 57.8 °F 29.95 in WNW 6.0 mph 13.0 mph 91 % 0.00 in 62 W/m2
06:12 60.6 °F 57.7 °F 29.95 in West 6.0 mph 12.0 mph 90 % 0.00 in 67 W/m2
06:17 61.0 °F 58.0 °F 29.95 in West 6.0 mph 12.0 mph 90 % 0.00 in 69 W/m2
06:22 61.2 °F 58.2 °F 29.95 in WNW 6.0 mph 10.0 mph 90 % 0.00 in 74 W/m2
06:27 61.2 °F 58.2 °F 29.95 in WNW 6.0 mph 11.0 mph 90 % 0.00 in 86 W/m2
06:32 61.3 °F 58.4 °F 29.95 in West 7.0 mph 11.0 mph 90 % 0.00 in 88 W/m2
06:37 61.3 °F 58.1 °F 29.95 in West 7.0 mph 10.0 mph 89 % 0.00 in 97 W/m2
06:42 61.5 °F 58.2 °F 29.95 in West 7.0 mph 11.0 mph 89 % 0.00 in 104 W/m2
06:47 61.7 °F 58.4 °F 29.95 in West 7.0 mph 11.0 mph 89 % 0.00 in 109 W/m2
06:52 61.9 °F 58.6 °F 29.95 in West 7.0 mph 10.0 mph 89 % 0.00 in 111 W/m2
06:57 62.1 °F 58.5 °F 29.96 in West 7.0 mph 11.0 mph 88 % 0.00 in 105 W/m2
07:02 62.2 °F 58.6 °F 29.96 in West 7.0 mph 12.0 mph 88 % 0.00 in 123 W/m2
07:07 62.4 °F 58.5 °F 29.96 in WNW 8.0 mph 14.0 mph 87 % 0.00 in 123 W/m2
07:12 62.6 °F 58.4 °F 29.96 in WNW 9.0 mph 15.0 mph 86 % 0.00 in 134 W/m2
07:17 62.8 °F 58.5 °F 29.96 in WNW 8.0 mph 15.0 mph 86 % 0.00 in 156 W/m2
07:22 63.0 °F 58.7 °F 29.96 in WNW 7.0 mph 12.0 mph 86 % 0.00 in 246 W/m2
07:27 63.1 °F 58.6 °F 29.96 in WNW 7.0 mph 12.0 mph 85 % 0.00 in 206 W/m2
07:32 63.5 °F 58.9 °F 29.96 in West 6.0 mph 11.0 mph 85 % 0.00 in 121 W/m2
07:37 63.7 °F 58.8 °F 29.96 in WNW 9.0 mph 15.0 mph 84 % 0.00 in 232 W/m2
07:42 64.0 °F 59.1 °F 29.96 in WNW 9.0 mph 15.0 mph 84 % 0.00 in 234 W/m2
07:47 64.2 °F 58.9 °F 29.97 in WNW 9.0 mph 14.0 mph 83 % 0.00 in 179 W/m2
07:52 64.6 °F 59.3 °F 29.97 in WNW 9.0 mph 14.0 mph 83 % 0.00 in 258 W/m2
07:57 64.9 °F 59.3 °F 29.97 in WNW 8.0 mph 13.0 mph 82 % 0.00 in 302 W/m2
08:02 65.1 °F 58.8 °F 29.97 in WNW 8.0 mph 15.0 mph 80 % 0.00 in 151 W/m2
08:07 65.1 °F 58.8 °F 29.97 in WNW 9.0 mph 15.0 mph 80 % 0.00 in 186 W/m2
08:12 65.3 °F 59.0 °F 29.97 in West 9.0 mph 15.0 mph 80 % 0.00 in 545 W/m2
08:17 65.7 °F 59.0 °F 29.97 in West 9.0 mph 14.0 mph 79 % 0.00 in 570 W/m2
08:22 66.4 °F 60.0 °F 29.98 in West 8.0 mph 14.0 mph 80 % 0.00 in 570 W/m2
08:27 66.9 °F 59.5 °F 29.98 in WNW 8.0 mph 13.0 mph 77 % 0.00 in 144 W/m2
08:32 66.7 °F 58.9 °F 29.98 in WNW 7.0 mph 13.0 mph 76 % 0.00 in 135 W/m2
08:37 66.4 °F 58.9 °F 29.98 in West 6.0 mph 10.0 mph 77 % 0.00 in 128 W/m2
08:42 66.2 °F 59.1 °F 29.97 in WNW 5.0 mph 9.0 mph 78 % 0.00 in 304 W/m2
08:47 66.4 °F 59.3 °F 29.97 in West 4.0 mph 7.0 mph 78 % 0.00 in 338 W/m2
08:52 66.7 °F 59.7 °F 29.97 in West 3.0 mph 6.0 mph 78 % 0.00 in 638 W/m2
08:57 67.3 °F 59.8 °F 29.98 in WSW 4.0 mph 7.0 mph 77 % 0.00 in 385 W/m2
09:02 67.8 °F 60.0 °F 29.98 in West 5.0 mph 8.0 mph 76 % 0.00 in 248 W/m2
09:08 68.0 °F 59.4 °F 29.97 in WNW 5.0 mph 8.0 mph 74 % 0.00 in 207 W/m2
09:13 68.0 °F 59.4 °F 29.97 in West 5.0 mph 9.0 mph 74 % 0.00 in 234 W/m2
09:18 68.2 °F 59.6 °F 29.97 in West 5.0 mph 9.0 mph 74 % 0.00 in 503 W/m2
09:23 68.5 °F 59.9 °F 29.97 in West 5.0 mph 9.0 mph 74 % 0.00 in 647 W/m2
09:28 68.7 °F 59.7 °F 29.97 in WSW 6.0 mph 9.0 mph 73 % 0.00 in 700 W/m2
09:33 69.3 °F 59.5 °F 29.97 in West 7.0 mph 13.0 mph 71 % 0.00 in 408 W/m2
09:38 69.4 °F 59.2 °F 29.97 in West 9.0 mph 15.0 mph 70 % 0.00 in 724 W/m2
09:43 70.0 °F 59.3 °F 29.97 in West 8.0 mph 15.0 mph 69 % 0.00 in 691 W/m2
09:48 70.5 °F 59.9 °F 29.97 in WNW 8.0 mph 13.0 mph 69 % 0.00 in 721 W/m2
09:53 71.2 °F 59.7 °F 29.97 in WNW 8.0 mph 13.0 mph 67 % 0.00 in 858 W/m2
09:58 71.8 °F 59.4 °F 29.97 in WNW 8.0 mph 15.0 mph 65 % 0.00 in 327 W/m2
10:03 71.4 °F 59.5 °F 29.97 in West 8.0 mph 15.0 mph 66 % 0.00 in 294 W/m2
10:08 70.9 °F 58.5 °F 29.97 in West 9.0 mph 15.0 mph 65 % 0.00 in 274 W/m2
10:13 70.5 °F 58.6 °F 29.97 in West 9.0 mph 15.0 mph 66 % 0.00 in 313 W/m2
10:18 70.3 °F 58.9 °F 29.97 in West 9.0 mph 15.0 mph 67 % 0.00 in 214 W/m2
10:23 70.2 °F 59.1 °F 29.97 in West 8.0 mph 13.0 mph 68 % 0.00 in 209 W/m2
10:28 69.6 °F 58.2 °F 29.98 in West 8.0 mph 13.0 mph 67 % 0.00 in 139 W/m2
10:33 69.3 °F 58.7 °F 29.98 in West 8.0 mph 14.0 mph 69 % 0.00 in 135 W/m2
10:38 68.9 °F 58.7 °F 29.97 in West 8.0 mph 14.0 mph 70 % 0.00 in 225 W/m2
10:43 68.9 °F 58.7 °F 29.97 in West 7.0 mph 11.0 mph 70 % 0.00 in 199 W/m2
10:44 68.9 °F 58.7 °F 29.98 in West 6.0 mph 11.0 mph 70 % 0.00 in 221 W/m2
10:49 68.9 °F 58.7 °F 29.98 in West 6.0 mph 11.0 mph 70 % 0.00 in 181 W/m2
10:54 68.9 °F 58.3 °F 29.98 in West 7.0 mph 11.0 mph 69 % 0.00 in 257 W/m2
10:59 68.9 °F 58.7 °F 29.97 in West 7.0 mph 12.0 mph 70 % 0.00 in 290 W/m2
11:04 69.1 °F 58.9 °F 29.97 in West 7.0 mph 12.0 mph 70 % 0.00 in 311 W/m2
11:09 69.1 °F 58.9 °F 29.98 in West 7.0 mph 11.0 mph 70 % 0.00 in 274 W/m2
11:14 68.7 °F 58.9 °F 29.98 in WSW 7.0 mph 11.0 mph 71 % 0.00 in 239 W/m2
11:19 68.7 °F 58.9 °F 29.98 in WSW 7.0 mph 12.0 mph 71 % 0.00 in 186 W/m2
11:24 68.5 °F 58.8 °F 29.98 in WSW 8.0 mph 14.0 mph 71 % 0.00 in 178 W/m2
11:29 68.4 °F 58.6 °F 29.98 in WSW 8.0 mph 14.0 mph 71 % 0.00 in 239 W/m2
11:34 68.4 °F 58.6 °F 29.98 in West 8.0 mph 16.0 mph 71 % 0.00 in 200 W/m2
11:39 68.4 °F 59.0 °F 29.99 in West 8.0 mph 16.0 mph 72 % 0.00 in 127 W/m2
11:44 68.4 °F 59.0 °F 29.98 in West 7.0 mph 12.0 mph 72 % 0.00 in 172 W/m2
11:49 68.4 °F 59.0 °F 29.98 in West 6.0 mph 12.0 mph 72 % 0.00 in 276 W/m2
11:54 68.4 °F 59.4 °F 29.98 in WSW 6.0 mph 11.0 mph 73 % 0.00 in 225 W/m2
11:59 68.5 °F 59.2 °F 29.98 in West 7.0 mph 12.0 mph 72 % 0.00 in 199 W/m2
12:04 68.5 °F 58.8 °F 29.98 in West 8.0 mph 12.0 mph 71 % 0.00 in 192 W/m2
12:09 68.7 °F 58.5 °F 29.98 in West 8.0 mph 12.0 mph 70 % 0.00 in 163 W/m2
12:14 68.7 °F 58.9 °F 29.98 in West 7.0 mph 12.0 mph 71 % 0.00 in 144 W/m2
12:19 68.7 °F 58.9 °F 29.98 in West 7.0 mph 13.0 mph 71 % 0.00 in 209 W/m2
12:24 68.7 °F 58.9 °F 29.98 in West 8.0 mph 13.0 mph 71 % 0.00 in 218 W/m2
12:29 68.9 °F 59.1 °F 29.98 in West 7.0 mph 11.0 mph 71 % 0.00 in 193 W/m2
12:34 69.1 °F 59.3 °F 29.98 in West 6.0 mph 11.0 mph 71 % 0.00 in 202 W/m2
12:39 69.3 °F 59.5 °F 29.98 in West 6.0 mph 13.0 mph 71 % 0.00 in 244 W/m2
12:44 69.3 °F 58.2 °F 29.98 in West 8.0 mph 13.0 mph 68 % 0.00 in 272 W/m2
12:49 69.4 °F 58.8 °F 29.98 in West 8.0 mph 13.0 mph 69 % 0.00 in 230 W/m2
12:54 69.6 °F 59.4 °F 29.98 in West 7.0 mph 13.0 mph 70 % 0.00 in 399 W/m2
12:58 69.8 °F 59.6 °F 29.98 in West 8.0 mph 13.0 mph 70 % 0.00 in 311 W/m2
13:03 70.2 °F 59.1 °F 29.98 in West 8.0 mph 13.0 mph 68 % 0.00 in 401 W/m2
13:08 70.3 °F 59.7 °F 29.98 in West 8.0 mph 13.0 mph 69 % 0.00 in 621 W/m2
13:13 70.7 °F 59.6 °F 29.98 in West 8.0 mph 13.0 mph 68 % 0.00 in 346 W/m2
13:18 70.7 °F 59.2 °F 29.98 in West 8.0 mph 14.0 mph 67 % 0.00 in 274 W/m2
13:23 70.9 °F 59.4 °F 29.98 in West 8.0 mph 14.0 mph 67 % 0.00 in 241 W/m2
13:28 70.9 °F 59.4 °F 29.98 in West 7.0 mph 11.0 mph 67 % 0.00 in 294 W/m2
13:34 70.7 °F 59.2 °F 29.98 in West 8.0 mph 15.0 mph 67 % 0.00 in 272 W/m2
13:39 70.7 °F 59.2 °F 29.98 in WNW 8.0 mph 15.0 mph 67 % 0.00 in 278 W/m2
13:44 70.5 °F 58.6 °F 29.98 in West 8.0 mph 14.0 mph 66 % 0.00 in 248 W/m2
13:49 70.3 °F 59.3 °F 29.98 in West 8.0 mph 14.0 mph 68 % 0.00 in 313 W/m2
13:54 70.3 °F 59.3 °F 29.98 in West 8.0 mph 13.0 mph 68 % 0.00 in 264 W/m2
13:59 70.2 °F 59.1 °F 29.98 in West 8.0 mph 13.0 mph 68 % 0.00 in 211 W/m2
14:04 70.2 °F 59.1 °F 29.98 in West 7.0 mph 13.0 mph 68 % 0.00 in 197 W/m2
14:09 70.0 °F 58.9 °F 29.98 in West 7.0 mph 11.0 mph 68 % 0.00 in 183 W/m2
14:14 69.8 °F 59.2 °F 29.98 in West 7.0 mph 11.0 mph 69 % 0.00 in 139 W/m2
14:19 69.6 °F 59.0 °F 29.98 in West 6.0 mph 10.0 mph 69 % 0.00 in 199 W/m2
14:24 69.6 °F 59.4 °F 29.98 in West 6.0 mph 9.0 mph 70 % 0.00 in 264 W/m2
14:29 69.6 °F 59.4 °F 29.98 in West 6.0 mph 11.0 mph 70 % 0.00 in 167 W/m2
14:34 69.8 °F 59.2 °F 29.98 in West 7.0 mph 13.0 mph 69 % 0.00 in 105 W/m2
14:39 69.6 °F 59.4 °F 29.98 in West 7.0 mph 13.0 mph 70 % 0.00 in 90 W/m2
14:44 69.6 °F 59.4 °F 29.98 in West 7.0 mph 11.0 mph 70 % 0.00 in 81 W/m2
14:49 69.4 °F 59.2 °F 29.98 in West 6.0 mph 11.0 mph 70 % 0.00 in 42 W/m2
14:54 69.3 °F 59.5 °F 29.98 in West 6.0 mph 11.0 mph 71 % 0.00 in 46 W/m2
14:59 69.1 °F 59.3 °F 29.99 in West 5.0 mph 9.0 mph 71 % 0.00 in 35 W/m2
15:04 68.9 °F 59.5 °F 29.99 in West 6.0 mph 13.0 mph 72 % 0.00 in 40 W/m2
15:09 68.7 °F 59.3 °F 29.99 in West 7.0 mph 13.0 mph 72 % 0.00 in 62 W/m2
15:14 68.5 °F 59.5 °F 29.98 in West 7.0 mph 13.0 mph 73 % 0.00 in 190 W/m2
15:19 68.7 °F 59.7 °F 29.98 in West 6.0 mph 11.0 mph 73 % 0.00 in 257 W/m2
15:24 68.9 °F 59.9 °F 29.98 in West 6.0 mph 11.0 mph 73 % 0.00 in 204 W/m2
15:29 69.1 °F 59.7 °F 29.98 in WNW 6.0 mph 11.0 mph 72 % 0.00 in 134 W/m2
15:34 69.3 °F 59.8 °F 29.98 in WNW 6.0 mph 12.0 mph 72 % 0.00 in 139 W/m2
15:39 69.3 °F 60.2 °F 29.98 in NW 5.0 mph 12.0 mph 73 % 0.00 in 65 W/m2
15:44 69.3 °F 59.8 °F 29.98 in NW 5.0 mph 11.0 mph 72 % 0.00 in 63 W/m2
15:49 68.9 °F 59.9 °F 29.98 in NW 5.0 mph 11.0 mph 73 % 0.00 in 63 W/m2
15:54 68.5 °F 59.5 °F 29.98 in NW 5.0 mph 10.0 mph 73 % 0.00 in 60 W/m2
16:00 68.4 °F 59.7 °F 29.98 in WNW 5.0 mph 10.0 mph 74 % 0.00 in 56 W/m2
16:05 68.2 °F 59.6 °F 29.98 in WNW 6.0 mph 10.0 mph 74 % 0.00 in 47 W/m2
16:10 67.8 °F 59.2 °F 29.98 in WNW 6.0 mph 10.0 mph 74 % 0.00 in 42 W/m2
16:15 67.6 °F 59.4 °F 29.98 in WNW 6.0 mph 10.0 mph 75 % 0.00 in 49 W/m2
16:20 67.6 °F 59.8 °F 29.98 in WNW 6.0 mph 9.0 mph 76 % 0.00 in 86 W/m2
16:25 67.5 °F 60.7 °F 29.98 in West 6.0 mph 13.0 mph 79 % 0.00 in 200 W/m2
16:30 67.1 °F 61.4 °F 29.98 in WNW 8.0 mph 13.0 mph 82 % 0.00 in 229 W/m2
16:35 66.6 °F 61.2 °F 29.99 in WNW 7.0 mph 12.0 mph 83 % 0.00 in 120 W/m2
16:40 66.2 °F 61.2 °F 29.98 in WNW 7.0 mph 12.0 mph 84 % 0.00 in 102 W/m2
16:45 65.7 °F 60.7 °F 29.98 in WNW 8.0 mph 13.0 mph 84 % 0.00 in 98 W/m2
16:50 65.3 °F 60.7 °F 29.98 in WNW 8.0 mph 13.0 mph 85 % 0.00 in 118 W/m2
16:55 65.1 °F 60.8 °F 29.98 in WNW 6.0 mph 12.0 mph 86 % 0.00 in 174 W/m2
17:00 64.9 °F 60.6 °F 29.98 in West 6.0 mph 10.0 mph 86 % 0.00 in 178 W/m2
17:05 64.9 °F 60.6 °F 29.98 in West 7.0 mph 11.0 mph 86 % 0.00 in 144 W/m2
17:10 64.9 °F 60.6 °F 29.99 in WNW 7.0 mph 11.0 mph 86 % 0.00 in 83 W/m2
17:16 64.9 °F 60.0 °F 29.98 in WNW 7.0 mph 13.0 mph 84 % 0.00 in 84 W/m2
17:21 64.9 °F 60.0 °F 29.98 in WNW 8.0 mph 13.0 mph 84 % 0.00 in 100 W/m2
17:26 64.8 °F 59.5 °F 29.98 in WNW 8.0 mph 13.0 mph 83 % 0.00 in 76 W/m2
17:31 64.8 °F 59.5 °F 29.98 in West 8.0 mph 13.0 mph 83 % 0.00 in 156 W/m2
17:36 64.8 °F 59.5 °F 29.98 in West 8.0 mph 14.0 mph 83 % 0.00 in 174 W/m2
17:41 64.8 °F 59.5 °F 29.98 in West 7.0 mph 14.0 mph 83 % 0.00 in 104 W/m2
17:46 64.8 °F 59.5 °F 29.98 in WSW 8.0 mph 12.0 mph 83 % 0.00 in 91 W/m2
17:51 64.6 °F 59.3 °F 29.98 in West 8.0 mph 12.0 mph 83 % 0.00 in 93 W/m2
17:56 64.8 °F 59.8 °F 29.99 in West 7.0 mph 12.0 mph 84 % 0.00 in 86 W/m2
18:01 64.8 °F 59.5 °F 29.98 in West 7.0 mph 11.0 mph 83 % 0.00 in 121 W/m2
18:06 64.8 °F 59.5 °F 29.98 in West 8.0 mph 13.0 mph 83 % 0.00 in 116 W/m2
18:11 64.8 °F 59.8 °F 29.98 in West 6.0 mph 13.0 mph 84 % 0.00 in 84 W/m2
18:16 64.8 °F 59.8 °F 29.98 in West 5.0 mph 10.0 mph 84 % 0.00 in 109 W/m2
18:23 64.8 °F 59.5 °F 29.99 in West 5.0 mph 7.0 mph 83 % 0.00 in 105 W/m2
18:28 64.9 °F 59.7 °F 29.99 in West 5.0 mph 9.0 mph 83 % 0.00 in 109 W/m2
18:33 64.9 °F 59.7 °F 29.99 in West 5.0 mph 10.0 mph 83 % 0.00 in 97 W/m2
18:38 64.9 °F 59.7 °F 29.98 in West 6.0 mph 10.0 mph 83 % 0.00 in 95 W/m2
18:43 65.1 °F 59.8 °F 29.98 in West 5.0 mph 10.0 mph 83 % 0.00 in 84 W/m2
18:48 65.1 °F 59.8 °F 29.98 in West 4.0 mph 9.0 mph 83 % 0.00 in 69 W/m2
18:53 65.1 °F 59.8 °F 29.98 in West 4.0 mph 8.0 mph 83 % 0.00 in 51 W/m2
18:58 65.1 °F 59.8 °F 29.98 in WNW 2.0 mph 8.0 mph 83 % 0.00 in 51 W/m2
19:03 65.1 °F 59.5 °F 29.98 in WNW 2.0 mph 8.0 mph 82 % 0.00 in 40 W/m2
19:08 65.1 °F 59.5 °F 29.98 in WNW 3.0 mph 8.0 mph 82 % 0.00 in 44 W/m2
19:13 65.1 °F 59.5 °F 29.98 in WNW 4.0 mph 7.0 mph 82 % 0.00 in 39 W/m2
19:18 65.1 °F 59.5 °F 29.98 in WNW 3.0 mph 7.0 mph 82 % 0.00 in 35 W/m2
19:23 64.9 °F 59.3 °F 29.98 in WNW 3.0 mph 8.0 mph 82 % 0.00 in 42 W/m2
19:28 64.9 °F 59.3 °F 29.98 in West 3.0 mph 8.0 mph 82 % 0.00 in 44 W/m2
19:33 64.9 °F 59.3 °F 29.98 in West 1.0 mph 5.0 mph 82 % 0.00 in 32 W/m2
19:38 64.9 °F 59.7 °F 29.98 in West 1.0 mph 5.0 mph 83 % 0.00 in 19 W/m2
19:43 64.9 °F 59.7 °F 29.98 in West 1.0 mph 5.0 mph 83 % 0.00 in 12 W/m2
19:49 64.8 °F 59.5 °F 29.98 in West 2.0 mph 5.0 mph 83 % 0.00 in 7 W/m2
19:54 64.8 °F 59.5 °F 29.98 in WNW 3.0 mph 6.0 mph 83 % 0.00 in 7 W/m2
19:59 64.8 °F 59.5 °F 29.98 in NW 2.0 mph 6.0 mph 83 % 0.00 in 5 W/m2
20:04 64.8 °F 59.5 °F 29.98 in NW 1.0 mph 5.0 mph 83 % 0.00 in 7 W/m2
20:09 64.6 °F 59.3 °F 29.98 in NW 1.0 mph 5.0 mph 83 % 0.00 in 7 W/m2
20:14 64.6 °F 59.6 °F 29.98 in NW 1.0 mph 4.0 mph 84 % 0.00 in 7 W/m2
20:19 64.6 °F 59.6 °F 29.99 in NW 2.0 mph 7.0 mph 84 % 0.00 in 7 W/m2
20:24 64.6 °F 59.6 °F 29.99 in NW 4.0 mph 9.0 mph 84 % 0.00 in 25 W/m2
20:29 64.4 °F 59.1 °F 29.99 in NW 5.0 mph 10.0 mph 83 % 0.00 in 14 W/m2
20:34 64.2 °F 58.9 °F 29.99 in WNW 6.0 mph 10.0 mph 83 % 0.00 in 23 W/m2
20:39 64.2 °F 58.9 °F 30.00 in WNW 4.0 mph 8.0 mph 83 % 0.00 in 42 W/m2
20:44 64.2 °F 58.9 °F 30.00 in WNW 4.0 mph 8.0 mph 83 % 0.00 in 60 W/m2
20:49 64.2 °F 58.9 °F 30.00 in WNW 5.0 mph 9.0 mph 83 % 0.00 in 47 W/m2
20:54 64.2 °F 58.9 °F 30.00 in WNW 5.0 mph 9.0 mph 83 % 0.00 in 46 W/m2
20:59 64.2 °F 58.9 °F 30.00 in WNW 5.0 mph 9.0 mph 83 % 0.00 in 28 W/m2
21:04 64.2 °F 58.6 °F 30.00 in WNW 5.0 mph 9.0 mph 82 % 0.00 in 16 W/m2
21:09 64.2 °F 58.9 °F 30.00 in WNW 4.0 mph 8.0 mph 83 % 0.00 in 11 W/m2
21:14 64.2 °F 58.9 °F 30.00 in WNW 4.0 mph 8.0 mph 83 % 0.00 in 7 W/m2
21:19 64.2 °F 58.9 °F 30.00 in WNW 4.0 mph 8.0 mph 83 % 0.00 in 5 W/m2
21:24 64.0 °F 58.4 °F 30.01 in West 6.0 mph 13.0 mph 82 % 0.00 in 5 W/m2
21:29 63.7 °F 58.4 °F 30.01 in West 8.0 mph 16.0 mph 83 % 0.00 in 0 W/m2
21:34 63.3 °F 58.1 °F 30.01 in WNW 9.0 mph 16.0 mph 83 % 0.00 in 0 W/m2
21:39 63.1 °F 57.9 °F 30.01 in West 8.0 mph 14.0 mph 83 % 0.00 in 0 W/m2
21:44 63.1 °F 57.9 °F 30.01 in West 8.0 mph 13.0 mph 83 % 0.00 in 0 W/m2
21:49 63.0 °F 58.0 °F 30.01 in West 7.0 mph 12.0 mph 84 % 0.00 in 0 W/m2
21:54 63.0 °F 58.0 °F 30.01 in West 6.0 mph 11.0 mph 84 % 0.00 in 0 W/m2
21:59 62.8 °F 57.9 °F 30.01 in West 6.0 mph 11.0 mph 84 % 0.00 in 0 W/m2
22:05 62.8 °F 57.9 °F 30.01 in West 6.0 mph 11.0 mph 84 % 0.00 in 0 W/m2
22:10 62.8 °F 57.9 °F 30.01 in West 6.0 mph 9.0 mph 84 % 0.00 in 0 W/m2
22:14 62.6 °F 57.7 °F 30.01 in West 6.0 mph 9.0 mph 84 % 0.00 in 0 W/m2
22:19 62.6 °F 57.7 °F 30.02 in WNW 6.0 mph 10.0 mph 84 % 0.00 in 0 W/m2
22:24 62.4 °F 57.2 °F 30.01 in WNW 7.0 mph 12.0 mph 83 % 0.00 in 0 W/m2
22:30 62.4 °F 57.5 °F 30.02 in WNW 7.0 mph 12.0 mph 84 % 0.00 in 0 W/m2
22:35 62.2 °F 57.0 °F 30.02 in WNW 7.0 mph 12.0 mph 83 % 0.00 in 0 W/m2
22:39 62.2 °F 57.3 °F 30.02 in WNW 6.0 mph 12.0 mph 84 % 0.00 in 0 W/m2
22:45 62.2 °F 57.3 °F 30.02 in WNW 6.0 mph 12.0 mph 84 % 0.00 in 0 W/m2
22:50 62.2 °F 57.3 °F 30.02 in WNW 6.0 mph 12.0 mph 84 % 0.00 in 0 W/m2
22:55 62.1 °F 57.2 °F 30.02 in WNW 6.0 mph 11.0 mph 84 % 0.00 in 0 W/m2
23:00 62.1 °F 57.2 °F 30.02 in WNW 6.0 mph 11.0 mph 84 % 0.00 in 0 W/m2
23:05 61.9 °F 57.3 °F 30.02 in WNW 6.0 mph 13.0 mph 85 % 0.00 in 0 W/m2
23:10 61.7 °F 57.1 °F 30.02 in WNW 7.0 mph 13.0 mph 85 % 0.00 in 0 W/m2
23:15 61.5 °F 57.0 °F 30.02 in WNW 7.0 mph 12.0 mph 85 % 0.00 in 0 W/m2
23:20 61.5 °F 57.3 °F 30.02 in WNW 6.0 mph 12.0 mph 86 % 0.00 in 0 W/m2
23:25 61.3 °F 57.4 °F 30.03 in WNW 4.0 mph 9.0 mph 87 % 0.00 in 0 W/m2
23:30 61.3 °F 57.4 °F 30.03 in WNW 5.0 mph 9.0 mph 87 % 0.00 in 0 W/m2
23:35 61.2 °F 57.3 °F 30.03 in WNW 6.0 mph 11.0 mph 87 % 0.00 in 0 W/m2
23:40 61.2 °F 56.9 °F 30.03 in WNW 7.0 mph 11.0 mph 86 % 0.00 in 0 W/m2
23:45 61.0 °F 56.8 °F 30.03 in WNW 7.0 mph 11.0 mph 86 % 0.00 in 0 W/m2
23:50 61.0 °F 57.1 °F 30.03 in WNW 6.0 mph 11.0 mph 87 % 0.00 in 0 W/m2
23:55 61.0 °F 57.1 °F 30.03 in WNW 6.0 mph 11.0 mph 87 % 0.00 in 0 W/m2
Delerius-Weather
Compliments of Weather Underground - 2.25 mb

Data updates at regular intervals.